Time;durP1;ratioP1;P1;durP2;ratioP2;P2;SDS_P1;SDS_P2;PMS_P1;PMS_P2;Temp;Humidity;BMP_temperature;BMP_pressure;BME280_temperature;BME280_humidity;BME280_pressure;Samples;Min_cycle;Max_cycle;Signal;HPM_P1;HPM_P2
2023/12/25 00:00:34;;;;;;;2.63;1.30;;;16.10;68.00;;;;;;5114617;28;20258;-66
2023/12/25 00:02:59;;;;;;;2.63;1.42;;;16.10;67.90;;;;;;5114691;28;20260;-66
2023/12/25 00:05:25;;;;;;;2.83;1.25;;;16.10;67.90;;;;;;5113794;28;20180;-67
2023/12/25 00:07:50;;;;;;;3.05;1.48;;;16.10;67.90;;;;;;5114653;28;20519;-67
2023/12/25 00:10:16;;;;;;;2.45;1.52;;;16.10;68.10;;;;;;5114256;28;20211;-67
2023/12/25 00:12:41;;;;;;;2.85;1.27;;;16.10;68.00;;;;;;5113991;28;20234;-66
2023/12/25 00:15:08;;;;;;;2.80;1.30;;;16.00;68.00;;;;;;5114567;28;20570;-66
2023/12/25 00:17:34;;;;;;;3.03;1.55;;;16.00;68.00;;;;;;5113283;28;20219;-66
2023/12/25 00:19:59;;;;;;;3.28;1.67;;;16.00;68.00;;;;;;5114480;28;20248;-66
2023/12/25 00:22:25;;;;;;;2.35;1.55;;;16.10;68.10;;;;;;5114140;28;20746;-67
2023/12/25 00:24:50;;;;;;;2.55;1.30;;;16.10;68.00;;;;;;5113390;28;20173;-67
2023/12/25 00:27:16;;;;;;;2.67;1.60;;;16.10;68.00;;;;;;5114132;28;20271;-66
2023/12/25 00:29:41;;;;;;;3.85;1.17;;;16.00;68.00;;;;;;5114262;28;20181;-67
2023/12/25 00:32:07;;;;;;;1.88;1.13;;;16.00;68.10;;;;;;5113569;28;20181;-67
2023/12/25 00:34:32;;;;;;;2.72;1.33;;;16.10;68.10;;;;;;5113914;28;20210;-67
2023/12/25 00:36:58;;;;;;;2.05;1.45;;;16.00;68.00;;;;;;5113920;28;20236;-67
2023/12/25 00:39:23;;;;;;;3.03;1.58;;;16.00;68.00;;;;;;5112844;28;20169;-67
2023/12/25 00:41:49;;;;;;;3.33;1.77;;;16.00;68.00;;;;;;5114138;28;20646;-67
2023/12/25 00:44:14;;;;;;;4.50;1.38;;;16.00;68.10;;;;;;5113541;28;20708;-67
2023/12/25 00:46:40;;;;;;;2.72;1.27;;;16.00;68.00;;;;;;5113069;28;20170;-66
2023/12/25 00:49:07;;;;;;;2.67;1.30;;;16.00;68.10;;;;;;5113871;28;20169;-67
2023/12/25 00:51:32;;;;;;;5.22;1.60;;;16.00;68.10;;;;;;5113489;28;20181;-67
2023/12/25 00:54:00;;;;;;;3.22;1.20;;;16.00;68.10;;;;;;5094656;28;20225;-67
2023/12/25 00:56:25;;;;;;;2.42;1.42;;;16.00;68.20;;;;;;5113568;28;20189;-67
2023/12/25 00:58:51;;;;;;;2.85;1.33;;;16.00;68.10;;;;;;5113637;28;20290;-67
2023/12/25 01:01:16;;;;;;;3.85;1.67;;;16.00;68.10;;;;;;5112728;28;20252;-67
2023/12/25 01:03:42;;;;;;;1.70;1.27;;;16.00;68.20;;;;;;5113559;28;20252;-67
2023/12/25 01:06:07;;;;;;;3.17;1.00;;;16.00;68.10;;;;;;5113448;28;20177;-67
2023/12/25 01:08:33;;;;;;;3.20;1.70;;;16.00;68.20;;;;;;5112370;28;20172;-67
2023/12/25 01:11:02;;;;;;;3.78;1.33;;;16.00;68.00;;;;;;5113562;28;20173;-68
2023/12/25 01:13:27;;;;;;;3.42;1.50;;;16.00;68.30;;;;;;5113019;28;20177;-66
2023/12/25 01:15:53;;;;;;;2.03;1.45;;;16.00;68.20;;;;;;5112802;28;20165;-66
2023/12/25 01:18:18;;;;;;;3.03;1.45;;;16.00;68.30;;;;;;5112941;28;20208;-66
2023/12/25 01:20:44;;;;;;;2.75;1.10;;;16.00;68.30;;;;;;5113205;28;20175;-66
2023/12/25 01:23:09;;;;;;;1.98;1.30;;;16.00;68.20;;;;;;5112323;28;20169;-66
2023/12/25 01:25:35;;;;;;;2.30;1.30;;;16.00;68.20;;;;;;5113014;28;20631;-66
2023/12/25 01:28:00;;;;;;;2.75;1.30;;;16.00;68.20;;;;;;5112166;28;20229;-67
2023/12/25 01:30:26;;;;;;;1.27;1.05;;;16.00;68.20;;;;;;5112839;28;20218;-67
2023/12/25 01:32:51;;;;;;;3.28;1.13;;;16.00;68.30;;;;;;5113079;28;20211;-67
2023/12/25 01:35:17;;;;;;;1.60;1.13;;;15.90;68.10;;;;;;5111985;28;20169;-68
2023/12/25 01:37:42;;;;;;;2.03;1.00;;;15.90;68.20;;;;;;5112737;28;20976;-67
2023/12/25 01:40:09;;;;;;;2.53;1.20;;;16.00;68.30;;;;;;5112912;28;20249;-67
2023/12/25 01:42:35;;;;;;;1.67;1.20;;;15.90;68.20;;;;;;5111972;28;20190;-66
2023/12/25 01:45:00;;;;;;;3.22;1.13;;;15.90;68.20;;;;;;5112803;28;20176;-67
2023/12/25 01:47:26;;;;;;;2.08;0.95;;;15.90;68.20;;;;;;5112374;28;20169;-67
2023/12/25 01:49:51;;;;;;;1.65;1.10;;;15.90;68.10;;;;;;5111397;28;20181;-67
2023/12/25 01:52:17;;;;;;;2.35;1.20;;;15.90;68.20;;;;;;5112163;28;20179;-67
2023/12/25 01:54:42;;;;;;;2.05;1.45;;;15.90;68.10;;;;;;5094720;28;20635;-67
2023/12/25 01:57:08;;;;;;;1.92;0.95;;;15.90;68.20;;;;;;5093903;28;20196;-67
2023/12/25 01:59:34;;;;;;;1.75;1.13;;;15.90;68.20;;;;;;5112428;28;20193;-67
2023/12/25 02:02:00;;;;;;;1.75;1.10;;;15.90;68.20;;;;;;5094421;28;20575;-66
2023/12/25 02:04:25;;;;;;;2.70;1.20;;;15.90;68.10;;;;;;5111707;28;20279;-67
2023/12/25 02:06:51;;;;;;;1.92;1.35;;;15.90;68.10;;;;;;5094315;28;20181;-67
2023/12/25 02:09:17;;;;;;;3.25;1.20;;;16.00;68.20;;;;;;5112446;28;20177;-67
2023/12/25 02:11:43;;;;;;;1.38;0.93;;;15.90;68.10;;;;;;5093854;28;20536;-67
2023/12/25 02:14:08;;;;;;;2.22;1.08;;;15.90;68.10;;;;;;5112385;28;20165;-66
2023/12/25 02:16:35;;;;;;;1.85;1.10;;;15.90;68.00;;;;;;5112272;28;20181;-66
2023/12/25 02:19:00;;;;;;;1.23;1.05;;;15.90;68.10;;;;;;5076990;28;20242;-68
2023/12/25 02:21:26;;;;;;;1.88;0.98;;;15.90;68.10;;;;;;5094038;28;20643;-67
2023/12/25 02:23:58;;;;;;;1.88;1.25;;;15.90;68.20;;;;;;5112583;28;20184;-66
2023/12/25 02:26:23;;;;;;;1.48;0.90;;;15.90;68.20;;;;;;5094284;28;20256;-66
2023/12/25 02:28:49;;;;;;;2.97;1.05;;;15.90;68.20;;;;;;5112478;28;20207;-67
2023/12/25 02:31:16;;;;;;;1.77;0.95;;;15.90;68.30;;;;;;5111364;28;20207;-67
2023/12/25 02:33:41;;;;;;;1.83;0.98;;;15.90;68.20;;;;;;5077497;28;20202;-67
2023/12/25 02:36:07;;;;;;;2.35;1.02;;;15.90;68.20;;;;;;5112218;28;20165;-66
2023/12/25 02:38:32;;;;;;;3.45;1.10;;;15.90;68.20;;;;;;5111201;28;20244;-67
2023/12/25 02:40:58;;;;;;;1.45;0.80;;;15.90;68.20;;;;;;5112427;28;20181;-67
2023/12/25 02:43:23;;;;;;;2.08;1.17;;;15.90;68.20;;;;;;5112058;28;20166;-67
2023/12/25 02:45:49;;;;;;;1.23;0.88;;;15.90;68.20;;;;;;5111596;28;20174;-68
2023/12/25 02:48:14;;;;;;;1.70;1.00;;;15.90;68.20;;;;;;5111913;28;20172;-67
2023/12/25 02:50:40;;;;;;;2.42;1.20;;;15.90;68.10;;;;;;5112133;28;20184;-67
2023/12/25 02:53:05;;;;;;;1.85;0.88;;;15.90;68.10;;;;;;5111406;28;20228;-67
2023/12/25 02:55:31;;;;;;;1.75;0.90;;;15.90;68.10;;;;;;5112042;28;20169;-67
2023/12/25 02:57:56;;;;;;;1.73;0.93;;;15.90;68.20;;;;;;5111985;28;20249;-67
2023/12/25 03:00:22;;;;;;;1.60;0.85;;;15.90;68.10;;;;;;5110965;28;20173;-66
2023/12/25 03:02:48;;;;;;;4.20;1.25;;;15.90;68.10;;;;;;5114020;28;20198;-67
2023/12/25 03:05:13;;;;;;;1.70;1.05;;;15.90;68.00;;;;;;5115753;28;20248;-67
2023/12/25 03:07:39;;;;;;;1.92;1.15;;;15.90;68.00;;;;;;5115082;28;20635;-66
2023/12/25 03:10:05;;;;;;;1.98;1.00;;;15.90;68.00;;;;;;5115853;28;20646;-67
2023/12/25 03:12:30;;;;;;;1.35;0.80;;;15.90;68.00;;;;;;5115289;28;20181;-66
2023/12/25 03:14:56;;;;;;;1.70;0.82;;;15.80;68.00;;;;;;5115121;28;20273;-66
2023/12/25 03:17:21;;;;;;;1.65;1.00;;;15.80;68.00;;;;;;5115103;28;20317;-66
2023/12/25 03:19:47;;;;;;;1.25;0.80;;;15.90;68.10;;;;;;5115523;28;20180;-66
2023/12/25 03:22:12;;;;;;;1.55;0.80;;;15.80;68.00;;;;;;5114749;28;20169;-66
2023/12/25 03:24:38;;;;;;;1.55;0.80;;;15.80;68.00;;;;;;5115295;28;20203;-66
2023/12/25 03:27:03;;;;;;;1.83;1.00;;;15.80;68.10;;;;;;5115567;28;20222;-67
2023/12/25 03:29:29;;;;;;;2.92;1.20;;;15.80;68.10;;;;;;5114365;28;20222;-67
2023/12/25 03:31:55;;;;;;;2.28;1.23;;;15.80;68.10;;;;;;5115398;28;20260;-67
2023/12/25 03:34:20;;;;;;;2.42;1.02;;;15.80;68.10;;;;;;5114872;28;20169;-67
2023/12/25 03:36:46;;;;;;;3.38;1.25;;;15.80;68.10;;;;;;5114683;28;20181;-66
2023/12/25 03:39:12;;;;;;;2.03;1.00;;;15.80;68.10;;;;;;5115305;28;20177;-67
2023/12/25 03:41:37;;;;;;;1.45;0.82;;;15.80;68.10;;;;;;5114297;28;20252;-68
2023/12/25 03:44:03;;;;;;;1.50;1.25;;;15.80;68.00;;;;;;5115085;28;20567;-67
2023/12/25 03:46:28;;;;;;;1.60;1.00;;;15.80;68.10;;;;;;5114833;28;20687;-67
2023/12/25 03:48:54;;;;;;;2.45;1.02;;;15.80;68.10;;;;;;5114253;28;20215;-67
2023/12/25 03:51:19;;;;;;;2.70;1.08;;;15.80;68.10;;;;;;5114909;28;20177;-67
2023/12/25 03:53:45;;;;;;;2.40;1.02;;;15.80;68.20;;;;;;5114725;28;20555;-67
2023/12/25 03:56:15;;;;;;;3.47;1.52;;;15.80;68.10;;;;;;5114122;28;20173;-67
2023/12/25 03:58:41;;;;;;;2.88;1.35;;;15.80;68.10;;;;;;5114841;28;20221;-66
2023/12/25 04:01:06;;;;;;;2.92;1.00;;;15.80;68.20;;;;;;5114805;28;20172;-67
2023/12/25 04:03:32;;;;;;;1.73;1.13;;;15.80;68.10;;;;;;5113694;28;20250;-66
2023/12/25 04:05:57;;;;;;;1.90;0.90;;;15.80;68.10;;;;;;5114910;28;20169;-67
2023/12/25 04:08:23;;;;;;;2.30;0.88;;;15.80;68.10;;;;;;5114509;28;20753;-67
2023/12/25 04:10:48;;;;;;;1.70;0.90;;;15.80;68.20;;;;;;5114006;28;20165;-67
2023/12/25 04:13:14;;;;;;;1.67;1.15;;;15.80;68.10;;;;;;5113913;28;20535;-67
2023/12/25 04:15:39;;;;;;;1.65;1.08;;;15.80;68.10;;;;;;5114584;28;20197;-68
2023/12/25 04:18:05;;;;;;;2.88;1.10;;;15.80;68.10;;;;;;5113719;28;20293;-67
2023/12/25 04:20:30;;;;;;;1.73;1.00;;;15.80;68.20;;;;;;5114448;28;20256;-69
2023/12/25 04:22:56;;;;;;;1.50;1.10;;;15.80;68.20;;;;;;5114337;28;20222;-67
2023/12/25 04:25:21;;;;;;;3.83;1.40;;;15.70;68.10;;;;;;5113461;28;20180;-67
2023/12/25 04:27:47;;;;;;;2.25;1.00;;;15.80;68.20;;;;;;5114365;28;20184;-66
2023/12/25 04:30:13;;;;;;;1.85;1.10;;;15.80;68.10;;;;;;5114273;28;20281;-67
2023/12/25 04:32:39;;;;;;;2.63;1.40;;;15.80;68.10;;;;;;5113394;28;20215;-67
2023/12/25 04:35:04;;;;;;;1.98;1.13;;;15.80;68.10;;;;;;5114325;28;20165;-67
2023/12/25 04:37:30;;;;;;;2.92;1.15;;;15.80;68.10;;;;;;5113805;28;20209;-67
2023/12/25 04:39:55;;;;;;;2.72;1.27;;;15.80;68.20;;;;;;5113417;28;20169;-67
2023/12/25 04:42:21;;;;;;;3.25;1.20;;;15.70;68.10;;;;;;5113611;28;20225;-67
2023/12/25 04:44:46;;;;;;;3.30;1.20;;;15.80;69.00;;;;;;5113863;28;20184;-67
2023/12/25 04:47:12;;;;;;;1.63;0.90;;;15.80;68.10;;;;;;5113187;28;20169;-67
2023/12/25 04:49:37;;;;;;;2.03;1.38;;;15.80;68.10;;;;;;5113471;28;20227;-67
2023/12/25 04:52:03;;;;;;;3.20;1.10;;;15.80;68.10;;;;;;5113113;28;20177;-66
2023/12/25 04:54:29;;;;;;;2.17;0.93;;;15.80;68.10;;;;;;5113600;28;20204;-67
2023/12/25 04:56:56;;;;;;;0.98;0.80;;;15.80;68.10;;;;;;5113687;28;20244;-66
2023/12/25 04:59:22;;;;;;;2.88;1.10;;;15.80;68.10;;;;;;5112607;28;20205;-67
2023/12/25 05:01:51;;;;;;;1.50;1.10;;;15.70;68.00;;;;;;5113500;28;20211;-67
2023/12/25 05:04:16;;;;;;;3.92;0.93;;;15.80;68.10;;;;;;5113447;28;20230;-67
2023/12/25 05:06:42;;;;;;;1.50;0.93;;;15.80;68.10;;;;;;5112947;28;20165;-67
2023/12/25 05:09:08;;;;;;;1.70;0.77;;;15.80;68.10;;;;;;5113571;28;20588;-67
2023/12/25 05:11:34;;;;;;;2.67;1.02;;;15.80;68.20;;;;;;5113201;28;20170;-66
2023/12/25 05:14:00;;;;;;;1.90;0.90;;;15.80;68.20;;;;;;5112676;28;20210;-66
2023/12/25 05:16:25;;;;;;;2.58;1.20;;;15.80;68.20;;;;;;5112797;28;20534;-67
2023/12/25 05:18:51;;;;;;;2.80;1.13;;;15.70;68.10;;;;;;5113361;28;20216;-65
2023/12/25 05:21:17;;;;;;;3.20;1.10;;;15.80;68.10;;;;;;5112414;28;20169;-66
2023/12/25 05:23:42;;;;;;;2.42;1.05;;;15.80;68.20;;;;;;5113347;28;20173;-66
2023/12/25 05:26:08;;;;;;;2.33;1.05;;;15.70;68.10;;;;;;5112498;28;20177;-66
2023/12/25 05:28:34;;;;;;;3.03;1.00;;;15.70;68.10;;;;;;5112204;28;20174;-67
2023/12/25 05:30:59;;;;;;;1.10;0.70;;;15.70;68.10;;;;;;5112975;28;20173;-67
2023/12/25 05:33:25;;;;;;;1.45;0.82;;;15.70;68.10;;;;;;5112893;28;20172;-67
2023/12/25 05:35:50;;;;;;;2.63;1.40;;;15.70;68.10;;;;;;5112545;28;20263;-67
2023/12/25 05:38:16;;;;;;;1.63;0.93;;;15.80;68.10;;;;;;5112693;28;20296;-66
2023/12/25 05:40:41;;;;;;;2.25;1.10;;;15.70;68.10;;;;;;5113001;28;20161;-67
2023/12/25 05:43:10;;;;;;;2.58;1.15;;;15.70;68.10;;;;;;5112279;28;20173;-66
2023/12/25 05:45:37;;;;;;;1.33;0.88;;;15.70;68.10;;;;;;5112335;28;20542;-66
2023/12/25 05:48:02;;;;;;;2.20;1.20;;;15.70;68.10;;;;;;5112747;28;20183;-67
2023/12/25 05:50:28;;;;;;;2.13;1.08;;;15.70;68.10;;;;;;5111882;28;20173;-67
2023/12/25 05:52:53;;;;;;;2.65;1.23;;;15.70;68.10;;;;;;5112769;28;20227;-67
2023/12/25 05:55:19;;;;;;;1.77;1.00;;;15.80;68.10;;;;;;5111838;28;20165;-67
2023/12/25 05:57:45;;;;;;;1.10;0.82;;;15.70;68.10;;;;;;5112646;28;20212;-66
2023/12/25 06:00:11;;;;;;;3.13;1.10;;;15.70;68.10;;;;;;5112607;28;20169;-67
2023/12/25 06:02:37;;;;;;;1.77;1.05;;;15.70;68.20;;;;;;5111598;28;20716;-66
2023/12/25 06:05:02;;;;;;;1.95;0.90;;;15.70;68.10;;;;;;5112686;28;20256;-67
2023/12/25 06:07:28;;;;;;;2.33;1.35;;;15.70;68.10;;;;;;5112404;28;20173;-67
2023/12/25 06:09:53;;;;;;;1.52;1.00;;;15.70;68.20;;;;;;5112006;28;20256;-67
2023/12/25 06:12:19;;;;;;;1.67;1.20;;;15.70;68.10;;;;;;5112293;28;20208;-67
2023/12/25 06:14:44;;;;;;;1.90;0.80;;;15.70;68.20;;;;;;5112451;28;20169;-66
2023/12/25 06:17:10;;;;;;;1.83;1.02;;;15.70;68.10;;;;;;5112009;28;20225;-70
2023/12/25 06:19:35;;;;;;;1.60;1.20;;;15.70;68.10;;;;;;5112519;28;20181;-65
2023/12/25 06:22:01;;;;;;;1.48;1.00;;;15.70;68.10;;;;;;5112568;28;20169;-66
2023/12/25 06:24:27;;;;;;;1.30;0.88;;;15.70;68.10;;;;;;5111420;28;20196;-65
2023/12/25 06:26:52;;;;;;;1.27;1.08;;;15.70;68.10;;;;;;5112499;28;20547;-66
2023/12/25 06:29:17;;;;;;;1.80;1.27;;;15.70;68.20;;;;;;5112039;28;20168;-66
2023/12/25 06:31:49;;;;;;;1.67;1.00;;;15.70;68.10;;;;;;5111877;28;20176;-67
2023/12/25 06:34:14;;;;;;;2.47;1.33;;;15.70;68.10;;;;;;5112231;28;20262;-67
2023/12/25 06:36:40;;;;;;;2.35;1.00;;;15.70;68.10;;;;;;5114231;28;20682;-66
2023/12/25 06:39:06;;;;;;;2.30;1.00;;;15.70;68.10;;;;;;5115691;28;20758;-67
2023/12/25 06:41:31;;;;;;;1.95;0.90;;;15.70;68.20;;;;;;5116136;28;20165;-66
2023/12/25 06:43:57;;;;;;;2.22;0.90;;;15.70;68.10;;;;;;5116227;28;20184;-67
2023/12/25 06:46:22;;;;;;;3.20;0.90;;;15.70;68.10;;;;;;5115493;28;20165;-67
2023/12/25 06:48:48;;;;;;;1.65;0.90;;;15.70;68.10;;;;;;5116388;28;20219;-66
2023/12/25 06:51:13;;;;;;;2.03;1.05;;;15.70;68.10;;;;;;5116160;28;20169;-66
2023/12/25 06:53:39;;;;;;;1.90;0.90;;;15.80;68.10;;;;;;5115206;28;20267;-66
2023/12/25 06:56:06;;;;;;;1.70;0.90;;;15.80;68.30;;;;;;5116099;28;20180;-66
2023/12/25 06:58:31;;;;;;;2.55;1.00;;;15.90;68.30;;;;;;5114852;28;20750;-67
2023/12/25 07:00:59;;;;;;;1.42;0.80;;;15.90;68.20;;;;;;5116162;28;20263;-66
2023/12/25 07:03:27;;;;;;;1.33;0.85;;;16.00;68.30;;;;;;5115800;28;20184;-66
2023/12/25 07:05:53;;;;;;;1.65;1.00;;;16.10;68.00;;;;;;5115126;28;20188;-67
2023/12/25 07:08:18;;;;;;;1.77;1.30;;;16.20;67.80;;;;;;5115588;28;20172;-67
2023/12/25 07:10:46;;;;;;;2.08;1.08;;;16.40;67.60;;;;;;5115865;28;20188;-66
2023/12/25 07:13:12;;;;;;;1.52;0.70;;;16.50;67.20;;;;;;5114874;28;20631;-66
2023/12/25 07:15:38;;;;;;;1.50;0.73;;;16.60;67.10;;;;;;5115373;28;20184;-66
2023/12/25 07:18:05;;;;;;;1.90;0.77;;;16.70;66.80;;;;;;5115786;28;20216;-65
2023/12/25 07:20:31;;;;;;;1.10;0.95;;;16.80;66.40;;;;;;5114686;28;20173;-66
2023/12/25 07:22:56;;;;;;;0.80;0.65;;;16.90;66.20;;;;;;5115633;28;20176;-66
2023/12/25 07:25:22;;;;;;;1.48;0.70;;;17.00;66.00;;;;;;5115256;28;20290;-66
2023/12/25 07:27:48;;;;;;;1.38;0.80;;;17.10;65.90;;;;;;5114777;28;20710;-67
2023/12/25 07:30:13;;;;;;;1.15;0.80;;;17.10;65.80;;;;;;5115510;28;20173;-67
2023/12/25 07:32:40;;;;;;;3.28;0.80;;;17.10;65.60;;;;;;5115535;28;20176;-67
2023/12/25 07:35:06;;;;;;;1.92;0.80;;;17.20;65.50;;;;;;5114712;28;20212;-67
2023/12/25 07:37:34;;;;;;;2.10;0.65;;;17.20;65.60;;;;;;5114814;28;20240;-67
2023/12/25 07:40:00;;;;;;;1.85;0.90;;;17.20;65.50;;;;;;5115122;28;20176;-67
2023/12/25 07:42:26;;;;;;;1.20;0.80;;;17.20;65.50;;;;;;5114182;28;21040;-67
2023/12/25 07:44:52;;;;;;;1.25;0.70;;;17.20;65.40;;;;;;5115074;28;20230;-67
2023/12/25 07:47:17;;;;;;;1.15;0.80;;;17.20;65.30;;;;;;5114276;28;20265;-67
2023/12/25 07:49:43;;;;;;;1.80;0.90;;;17.20;65.30;;;;;;5114065;28;20212;-67
2023/12/25 07:52:08;;;;;;;1.48;0.90;;;17.20;65.30;;;;;;5114878;28;20272;-67
2023/12/25 07:54:34;;;;;;;1.95;0.70;;;17.20;65.30;;;;;;5114737;28;20181;-67
2023/12/25 07:56:59;;;;;;;0.82;0.70;;;17.30;65.20;;;;;;5114120;28;20288;-68
2023/12/25 07:59:25;;;;;;;0.70;0.70;;;17.30;65.20;;;;;;5114806;28;20184;-67
2023/12/25 08:01:50;;;;;;;1.35;0.70;;;17.30;65.30;;;;;;5114286;28;20218;-67
2023/12/25 08:04:16;;;;;;;0.88;0.50;;;17.40;65.10;;;;;;5114580;28;20240;-67
2023/12/25 08:06:42;;;;;;;0.75;0.55;;;17.40;64.90;;;;;;5114784;28;20169;-67
2023/12/25 08:09:09;;;;;;;1.38;0.50;;;17.50;64.80;;;;;;5114175;28;20192;-68
2023/12/25 08:11:35;;;;;;;1.60;0.82;;;17.40;64.80;;;;;;5114280;28;20215;-68
2023/12/25 08:14:01;;;;;;;1.48;0.70;;;17.50;64.90;;;;;;5114777;28;20169;-69
2023/12/25 08:16:26;;;;;;;1.08;0.80;;;17.50;64.70;;;;;;5113818;28;20218;-67
2023/12/25 08:18:52;;;;;;;0.70;0.57;;;17.50;64.60;;;;;;5114616;28;20204;-66
2023/12/25 08:21:20;;;;;;;1.48;0.70;;;17.50;64.50;;;;;;5114128;28;20674;-67
2023/12/25 08:23:45;;;;;;;0.65;0.60;;;17.60;64.50;;;;;;5113666;28;20193;-66
2023/12/25 08:26:11;;;;;;;0.77;0.60;;;17.60;64.40;;;;;;5114189;28;20659;-67
2023/12/25 08:28:37;;;;;;;0.93;0.65;;;17.60;64.30;;;;;;5114140;28;20267;-67
2023/12/25 08:31:04;;;;;;;0.63;0.40;;;17.60;64.40;;;;;;5113454;28;20644;-67
2023/12/25 08:33:29;;;;;;;1.00;0.65;;;17.60;64.40;;;;;;5113867;28;20181;-67
2023/12/25 08:35:55;;;;;;;0.70;0.60;;;17.60;64.40;;;;;;5114247;28;20180;-67
2023/12/25 08:38:20;;;;;;;2.35;0.80;;;17.50;64.40;;;;;;5112806;28;20296;-67
2023/12/25 08:40:46;;;;;;;0.93;0.50;;;17.50;64.50;;;;;;5114068;28;20256;-67
2023/12/25 08:43:11;;;;;;;1.48;0.95;;;17.50;64.70;;;;;;5113702;28;20169;-67
2023/12/25 08:45:37;;;;;;;1.38;0.82;;;17.40;64.80;;;;;;5112784;28;20196;-67
2023/12/25 08:48:03;;;;;;;1.35;0.60;;;17.30;64.90;;;;;;5113688;28;20177;-67
2023/12/25 08:50:29;;;;;;;1.67;0.50;;;17.30;65.00;;;;;;5113625;28;20196;-67
2023/12/25 08:52:54;;;;;;;1.98;0.80;;;17.30;65.10;;;;;;5112798;28;20229;-67
2023/12/25 08:55:20;;;;;;;0.50;0.50;;;17.30;65.30;;;;;;5113304;28;20173;-67
2023/12/25 08:57:45;;;;;;;0.52;0.40;;;17.20;65.40;;;;;;5113580;28;20201;-67
2023/12/25 09:00:11;;;;;;;1.60;0.65;;;17.20;65.40;;;;;;5111877;28;20169;-66
2023/12/25 09:02:37;;;;;;;1.02;0.57;;;17.20;65.40;;;;;;5113334;28;20197;-67
2023/12/25 09:05:05;;;;;;;1.13;0.50;;;17.10;65.50;;;;;;5113054;28;20253;-67
2023/12/25 09:07:31;;;;;;;1.05;0.60;;;17.10;65.60;;;;;;5113002;28;20615;-67
2023/12/25 09:09:58;;;;;;;1.60;0.70;;;17.10;65.60;;;;;;5113585;28;20181;-67
2023/12/25 09:12:23;;;;;;;0.50;0.50;;;17.00;65.70;;;;;;5112553;28;20197;-66
2023/12/25 09:14:49;;;;;;;0.57;0.50;;;17.00;65.90;;;;;;5113432;28;20197;-66
2023/12/25 09:17:16;;;;;;;1.08;0.70;;;17.00;66.00;;;;;;5112923;28;20223;-67
2023/12/25 09:19:42;;;;;;;0.50;0.50;;;16.90;66.00;;;;;;5112710;28;20181;-66
2023/12/25 09:22:07;;;;;;;0.73;0.68;;;17.00;66.10;;;;;;5095112;28;20234;-66
2023/12/25 09:24:33;;;;;;;0.80;0.68;;;17.00;66.10;;;;;;5112854;28;20180;-65
2023/12/25 09:26:58;;;;;;;1.20;0.70;;;17.00;66.10;;;;;;5112663;28;20170;-66
2023/12/25 09:29:24;;;;;;;0.85;0.52;;;17.00;66.00;;;;;;5112971;28;20185;-68
2023/12/25 09:31:50;;;;;;;1.50;0.70;;;17.00;66.00;;;;;;5113158;28;20165;-68
2023/12/25 09:34:15;;;;;;;0.68;0.57;;;17.00;66.00;;;;;;5112044;28;20229;-67
2023/12/25 09:36:40;;;;;;;2.00;1.05;;;16.90;66.00;;;;;;5112992;28;20177;-66
2023/12/25 09:39:06;;;;;;;0.40;0.40;;;16.90;66.10;;;;;;5112798;28;20209;-67
2023/12/25 09:41:32;;;;;;;1.67;0.60;;;16.90;66.10;;;;;;5111869;28;20165;-67
2023/12/25 09:43:58;;;;;;;1.35;0.50;;;16.90;66.20;;;;;;5094943;28;20185;-67
2023/12/25 09:46:24;;;;;;;1.10;0.70;;;16.90;66.20;;;;;;5112587;28;20180;-67
2023/12/25 09:48:50;;;;;;;0.93;0.63;;;16.90;66.30;;;;;;5093969;28;20187;-67
2023/12/25 09:51:18;;;;;;;1.45;0.63;;;16.90;66.30;;;;;;5112447;28;20169;-67
2023/12/25 09:53:44;;;;;;;0.65;0.65;;;16.90;66.20;;;;;;5112526;28;20228;-67
2023/12/25 09:56:10;;;;;;;0.90;0.68;;;16.90;66.20;;;;;;5112325;28;20179;-67
2023/12/25 09:58:35;;;;;;;0.75;0.73;;;16.90;66.20;;;;;;5077356;28;20241;-67
2023/12/25 10:01:01;;;;;;;0.73;0.40;;;16.90;66.20;;;;;;5094507;28;20230;-66
2023/12/25 10:03:27;;;;;;;1.05;0.50;;;16.90;66.20;;;;;;5111631;28;20598;-67
2023/12/25 10:05:53;;;;;;;1.17;0.60;;;16.90;66.20;;;;;;5094422;28;20632;-67
2023/12/25 10:08:18;;;;;;;0.38;0.35;;;16.80;66.20;;;;;;5112252;28;20264;-68
2023/12/25 10:10:45;;;;;;;1.15;0.57;;;16.80;66.20;;;;;;5111620;28;20524;-68
2023/12/25 10:13:11;;;;;;;0.77;0.60;;;16.80;66.30;;;;;;5112589;28;20196;-67
2023/12/25 10:15:36;;;;;;;1.40;0.50;;;16.80;66.40;;;;;;5111596;28;20203;-66
2023/12/25 10:18:06;;;;;;;0.57;0.40;;;16.80;66.40;;;;;;5112412;28;20216;-67
2023/12/25 10:20:32;;;;;;;0.63;0.55;;;16.80;66.40;;;;;;5094544;28;20539;-67
2023/12/25 10:22:57;;;;;;;1.48;0.40;;;16.90;66.40;;;;;;5111891;28;20658;-67
2023/12/25 10:25:29;;;;;;;1.33;0.40;;;16.90;66.40;;;;;;5112341;28;20181;-67
2023/12/25 10:27:55;;;;;;;0.70;0.60;;;16.90;66.30;;;;;;5112453;28;20222;-67
2023/12/25 10:30:22;;;;;;;0.68;0.50;;;16.80;66.30;;;;;;5093211;28;20169;-67
2023/12/25 10:32:48;;;;;;;0.52;0.50;;;16.80;66.30;;;;;;5112395;28;20208;-67
2023/12/25 10:35:14;;;;;;;1.05;0.50;;;16.80;66.30;;;;;;5112054;28;20176;-68
2023/12/25 10:37:40;;;;;;;0.57;0.55;;;16.80;66.40;;;;;;5111427;28;20286;-67
2023/12/25 10:40:22;;;;;;;0.60;0.60;;;16.80;66.40;;;;;;5112469;28;20173;-67
2023/12/25 10:42:48;;;;;;;0.75;0.40;;;16.70;66.40;;;;;;5112387;28;20180;-67
2023/12/25 10:45:21;;;;;;;0.50;0.50;;;16.70;66.50;;;;;;5111224;28;20216;-67
2023/12/25 10:47:47;;;;;;;0.93;0.50;;;16.70;66.50;;;;;;5094964;28;20177;-68
2023/12/25 10:50:13;;;;;;;1.48;0.52;;;16.70;66.50;;;;;;5094116;28;20169;-67
2023/12/25 10:52:39;;;;;;;1.00;0.60;;;16.70;66.50;;;;;;5076349;28;20240;-67
2023/12/25 10:55:05;;;;;;;0.73;0.50;;;16.70;66.50;;;;;;5094115;28;20174;-67
2023/12/25 10:57:30;;;;;;;0.60;0.60;;;16.70;66.60;;;;;;5111846;28;20208;-67
2023/12/25 10:59:56;;;;;;;0.60;0.40;;;16.70;66.60;;;;;;5093251;28;20169;-68
2023/12/25 11:02:21;;;;;;;0.40;0.40;;;16.70;66.60;;;;;;5093609;28;20196;-67
2023/12/25 11:04:47;;;;;;;0.50;0.50;;;16.70;67.50;;;;;;5093421;28;20261;-68
2023/12/25 11:07:16;;;;;;;0.70;0.63;;;16.70;66.70;;;;;;5112097;28;20314;-67
2023/12/25 11:09:42;;;;;;;1.52;0.60;;;16.60;66.60;;;;;;5094360;28;20176;-67
2023/12/25 11:12:07;;;;;;;1.00;0.77;;;16.60;66.60;;;;;;5093321;28;20523;-67
2023/12/25 11:14:33;;;;;;;1.48;0.63;;;16.70;66.70;;;;;;5111668;28;20487;-66
2023/12/25 11:17:01;;;;;;;1.35;0.47;;;16.70;66.80;;;;;;5093606;28;20177;-67
2023/12/25 11:19:26;;;;;;;0.50;0.50;;;16.70;66.60;;;;;;5111055;28;20234;-65
2023/12/25 11:21:53;;;;;;;1.08;0.60;;;16.70;66.50;;;;;;5093723;28;20169;-66
2023/12/25 11:24:19;;;;;;;0.40;0.40;;;16.70;66.40;;;;;;5096288;28;20183;-66
2023/12/25 11:26:45;;;;;;;1.10;0.43;;;16.70;66.40;;;;;;5096776;28;20268;-67
2023/12/25 11:29:10;;;;;;;1.20;0.50;;;16.70;66.50;;;;;;5097296;28;20234;-67
2023/12/25 11:31:44;;;;;;;0.45;0.45;;;16.70;66.50;;;;;;5096927;28;20165;-67
2023/12/25 11:34:23;;;;;;;0.93;0.65;;;16.70;66.40;;;;;;5114849;28;20251;-67
2023/12/25 11:36:57;;;;;;;0.60;0.47;;;16.70;66.50;;;;;;5115453;28;20179;-67
2023/12/25 11:39:29;;;;;;;0.57;0.50;;;16.70;66.50;;;;;;5097298;28;20184;-68
2023/12/25 11:41:55;;;;;;;0.70;0.38;;;16.70;66.50;;;;;;5114563;28;20169;-67
2023/12/25 11:44:31;;;;;;;0.43;0.40;;;16.70;66.50;;;;;;5115092;28;20176;-67
2023/12/25 11:47:02;;;;;;;0.77;0.75;;;16.70;66.50;;;;;;5114471;28;20181;-67
2023/12/25 11:49:29;;;;;;;1.63;0.70;;;16.60;66.50;;;;;;5114547;28;20537;-67
2023/12/25 11:51:54;;;;;;;0.60;0.60;;;16.60;66.60;;;;;;5096467;28;20256;-67
2023/12/25 11:54:20;;;;;;;1.20;0.70;;;16.60;66.60;;;;;;5113693;28;20288;-67
2023/12/25 11:56:45;;;;;;;1.00;0.68;;;16.70;66.60;;;;;;5114749;28;20170;-66
2023/12/25 11:59:11;;;;;;;1.23;0.65;;;16.60;66.60;;;;;;5096584;28;20211;-67
2023/12/25 12:01:39;;;;;;;1.20;0.93;;;16.60;66.60;;;;;;5113736;28;20177;-67
2023/12/25 12:04:05;;;;;;;3.05;0.50;;;16.60;66.50;;;;;;5114539;28;20208;-69
2023/12/25 12:06:30;;;;;;;2.95;0.50;;;16.60;66.60;;;;;;5114579;28;20189;-68
2023/12/25 12:08:56;;;;;;;0.65;0.60;;;16.60;66.50;;;;;;5113680;28;20268;-69
2023/12/25 12:11:22;;;;;;;1.35;0.52;;;16.60;66.50;;;;;;5114328;28;20261;-68
2023/12/25 12:13:47;;;;;;;1.25;0.80;;;16.60;66.30;;;;;;5114773;28;20284;-67
2023/12/25 12:16:13;;;;;;;2.47;0.63;;;16.60;66.40;;;;;;5114096;28;20193;-67
2023/12/25 12:18:38;;;;;;;2.08;0.90;;;16.50;66.40;;;;;;5114113;28;20303;-67
2023/12/25 12:21:04;;;;;;;1.27;0.75;;;16.60;66.40;;;;;;5114488;28;20173;-68
2023/12/25 12:23:32;;;;;;;1.83;0.82;;;16.60;66.20;;;;;;5078322;28;20259;-67
2023/12/25 12:25:59;;;;;;;2.58;0.70;;;16.70;66.30;;;;;;5114321;28;20181;-67
2023/12/25 12:28:25;;;;;;;1.48;0.63;;;16.70;66.30;;;;;;5114180;28;20173;-68
2023/12/25 12:30:51;;;;;;;0.52;0.50;;;16.70;66.30;;;;;;5113519;28;20584;-68
2023/12/25 12:33:17;;;;;;;1.55;0.70;;;16.70;66.40;;;;;;5113838;28;20644;-68
2023/12/25 12:35:43;;;;;;;0.90;0.50;;;16.70;66.40;;;;;;5078913;28;20250;-68
2023/12/25 12:38:12;;;;;;;0.90;0.63;;;16.60;66.40;;;;;;5094981;28;20319;-68
2023/12/25 12:40:37;;;;;;;1.60;0.60;;;16.60;66.30;;;;;;5113960;28;20647;-68